Accueil
METAR-TAF:

METAR-TAF

Aéroports :

Station RAF de Northolt

Northolt, Angleterre

latitude: 51-33N, longitude: 000-25W, altitude: 38 m

Observation

Le bulletin a été fait il y a 1 heure et 7 minutes, à 23:50 UTC
Vent 5 kt de sud-ouest
Température 15°C
Humidité 88%
Pression 1017 hPa
Visibilité 10 km ou plus

METAR: EGWU 172350Z AUTO 23005KT 9999 NCD 15/13 Q1017

Heure: 01:57 (00:57 UTC)

Prévision

Le bulletin a été fait il y a 5 heures et 18 minutes, à 19:39 UTC
Prévision valable du 17 à 21 UTC au 18 à 15 UTC
Vent 12 kt de sud
Visibilité 10 km ou plus
pas de nuages en-dessous de 1500 mètres et pas de cumulonimbus.
Probabilité 30% :
Temporairement
du 17 à 22 UTC au 18 à 01 UTC
Nuages épars à une hauteur de 800 ft
Probabilité 30%
du 18 à 01 UTC au 18 à 06 UTC
Visibilité: 6000 m
brume, Brouillard mince

TAF: EGWU 171939Z 1721/1815 17012KT CAVOK PROB30 TEMPO 1722/1801 SCT008 PROB30 1801/1806 6000 BR MIFG

Observations et prévisions météorologiques de plus de 4000 aéroports (messages METAR et TAF).

Les stations disponibles sont représentées par des disques jaunes et rouges sur la carte.

Passer la souris dessus pour voir le nom de la station.

Cliquer dessus pour voir les observations et prévisions météorologiques.

Pour changer de carte: cliquez sur les boutons verts avec une croix noire pour zoomer, sur le bouton vert avec un tiret pour effectuer un zoom arrière, ou sur les flèches vertes pour les cartes adjacentes.


METAR-TAF: